マカオ の空港の天気 - METARとTAF

マカオ国際空港 ( VMMC / MFM ) - マカオ タイパ島
飛行場実況気象(Metar)
観測時間03/26 14:30 CST (03/26 06:30 UTC)
風向・風速北 8m/s
視程10km以上
天気現象
少しの雲 雲底高度 760m
全天の4割程度の雲 雲底高度 1370m
気温16℃
湿度68%
気圧1021hPa
METARVMMC 260630Z 36016KT 9999 FEW025 SCT045 16/10 Q1021 NOSIG
過去の天気等 Google飛行場航空写真 Wunderground天気予報

過去48時間のMETAR

飛行場予報(TAF)
発表時間: 3/26 13:03 CST (3/26 05:03 UTC)
予報対象時間: 26日14時 CST ~ 27日20時 CST
風向・風速北北東 8m/s
視程10km以上
少しの雲 雲底高度 760m
全天の4割程度の雲 雲底高度 1,370m
27日14時 CST ~ 27日17時 CST に徐々に
風向・風速東 6m/s
TAF VMMC 260503Z 2606/2712 02015KT 9999 FEW025 SCT045
BECMG 2706/2709 09012KT